Redwood City, CA

5:49 AM PDT on May 23, 2015 (GMT -0700)
Hayward Executive | | Change Station
CLOSE
Current Station
Airport
Location: Hayward,
Elevation: 46 ft
Nearby Weather Stations

Elev 46 ft 37.66 °N, 122.12 °W | Updated 55 minutes ago

Overcast
Overcast
54 °F
Feels Like 54 °F
N
9
Wind Variable Wind from West

Today
High -- | Low -- °F
--% Chance of Precip.
Yesterday
High -- | Low -- °F
Precip. -- in
5:54 AM 8:17 PM
Waxing Crescent, 29% visible
Pressure 30.10 in
Visibility 9.0 miles
Clouds Overcast 1000 ft
Dew Point 51 °F
Humidity 90%
Rainfall 0.00 in
Snow Depth Not available.
UV 0 out of 12
Pollen 6.50 out of 12
Air Quality Not available.
Flu Activity Sporadic
METAR KHWD 231154Z AUTO 26008KT 9SM OVC010 12/11 A3007 RMK AO2 CIG 007V012 SLP191 T01220106 10139 20122 56002

More Conditions Fewer Conditions

Pressure 30.10 in
Visibility 9.0 miles
Clouds Overcast 1000 ft
Dew Point 51 °F
Humidity 90%
Rainfall 0.00 in
Snow Depth Not available.
UV 0 out of 12
Pollen 6.50 out of 12
Air Quality Not available.
Flu Activity Sporadic
METAR KHWD 231154Z AUTO 26008KT 9SM OVC010 12/11 A3007 RMK AO2 CIG 007V012 SLP191 T01220106 10139 20122 56002

More Conditions Fewer Conditions

10-Day Weather Forecast

Almanac

Astronomy

May. 23, 2015 Rise Set
Actual Time
Civil Twilight
Nautical Twilight
Astronomical Twilight
Moon
Length of Visible Light
Length of Day
Tomorrow will be .
, % of the Moon is Illuminated

Today's Extremes

State Highs State Lows

Community

WunderPhotos

Upload Photos

1,823,442 photos uploaded!

WunderBlogs® & News

Nearby

Air Quality

  Air Quality AQ Index Pollutant
Not available.

Snow Depth

Station Depth Elevation

Earthquake Activity

City Distance Mag. Time & Date
Minimum magnitude displayed is 2.5.

Coastal Water Temperatures

Place Temperature

Stations

Nearby Weather Stations

Station Location Temp. Windchill Dew Point Humidity Wind Precip. Elev Updated Type